Time;durP1;ratioP1;P1;durP2;ratioP2;P2;SDS_P1;SDS_P2;PMS_P1;PMS_P2;Temp;Humidity;BMP_temperature;BMP_pressure;BME280_temperature;BME280_humidity;BME280_pressure;Samples;Min_cycle;Max_cycle;Signal;HPM_P1;HPM_P2
2022/03/30 00:08:37;;;;;;;3.25;1.35;;;11.70;59.30;;;;;;20618365;28;20400;-74
2022/03/30 00:18:38;;;;;;;4.13;1.15;;;11.60;59.20;;;;;;20633021;28;20499;-73
2022/03/30 00:28:38;;;;;;;3.97;1.38;;;11.60;59.10;;;;;;20647559;28;20030;-74
2022/03/30 00:38:39;;;;;;;4.55;1.35;;;11.60;59.10;;;;;;20647939;28;20045;-73
2022/03/30 00:48:40;;;;;;;2.22;1.38;;;11.60;59.00;;;;;;20647691;28;20034;-72
2022/03/30 00:58:40;;;;;;;3.88;1.50;;;11.60;59.00;;;;;;20654652;28;20069;-74
2022/03/30 01:08:41;;;;;;;1.53;1.00;;;11.50;58.90;;;;;;20630700;28;20042;-74
2022/03/30 01:18:42;;;;;;;2.95;1.08;;;11.50;58.90;;;;;;20662232;28;20313;-73
2022/03/30 01:28:42;;;;;;;3.00;1.27;;;11.50;58.90;;;;;;20661853;28;20042;-74
2022/03/30 01:38:44;;;;;;;4.28;1.48;;;11.50;58.80;;;;;;20644790;28;20034;-74
2022/03/30 01:48:45;;;;;;;2.35;1.13;;;11.50;58.80;;;;;;20660848;28;20393;-73
2022/03/30 01:58:46;;;;;;;4.00;1.60;;;11.50;58.70;;;;;;20676327;28;20044;-74
2022/03/30 02:08:46;;;;;;;2.10;1.20;;;11.50;58.70;;;;;;20674603;28;20481;-73
2022/03/30 02:18:47;;;;;;;2.20;0.82;;;11.50;58.70;;;;;;20972505;23;20062;-75
2022/03/30 02:28:54;;;;;;;4.90;1.42;;;11.40;58.60;;;;;;20652098;28;20034;-74
2022/03/30 02:38:55;;;;;;;2.47;1.33;;;11.40;58.60;;;;;;20652423;28;20448;-72
2022/03/30 02:48:56;;;;;;;2.70;1.30;;;11.40;58.60;;;;;;20666707;28;20038;-75
2022/03/30 02:58:56;;;;;;;2.83;1.10;;;11.40;58.60;;;;;;20650175;28;20516;-75
2022/03/30 03:08:57;;;;;;;2.58;1.08;;;11.40;58.60;;;;;;20665765;28;20289;-74
2022/03/30 03:18:57;;;;;;;2.58;0.95;;;11.30;58.50;;;;;;20663202;28;20035;-73
2022/03/30 03:28:58;;;;;;;2.70;0.93;;;11.40;58.60;;;;;;20647665;28;20432;-72
2022/03/30 03:38:58;;;;;;;2.90;1.15;;;11.30;58.50;;;;;;20646850;28;20540;-73
2022/03/30 03:48:59;;;;;;;2.15;1.10;;;11.30;58.50;;;;;;20661699;28;20030;-73
2022/03/30 03:59:00;;;;;;;3.47;1.05;;;11.30;58.50;;;;;;20644975;28;20137;-75
2022/03/30 04:09:00;;;;;;;2.13;1.30;;;11.30;58.50;;;;;;20644577;28;20030;-74
2022/03/30 04:19:01;;;;;;;1.38;0.90;;;11.30;58.50;;;;;;20659908;28;20719;-73
2022/03/30 04:29:02;;;;;;;2.28;1.00;;;11.20;58.50;;;;;;20642209;28;20484;-73
2022/03/30 04:39:03;;;;;;;3.42;1.20;;;11.20;58.50;;;;;;20659376;28;20164;-73
2022/03/30 04:49:05;;;;;;;3.05;0.95;;;11.30;58.60;;;;;;20641879;28;20145;-76
2022/03/30 04:59:06;;;;;;;1.45;0.70;;;11.20;58.50;;;;;;20662294;28;20089;-79
2022/03/30 05:09:06;;;;;;;1.35;0.82;;;11.20;58.60;;;;;;20662265;28;20421;-77
2022/03/30 05:19:07;;;;;;;3.00;1.13;;;11.20;58.70;;;;;;20647397;28;20133;-76
2022/03/30 05:29:07;;;;;;;1.80;0.80;;;11.20;59.30;;;;;;20658767;28;20389;-74
2022/03/30 05:39:08;;;;;;;3.20;1.15;;;11.20;58.60;;;;;;20638947;28;20484;-73
2022/03/30 05:49:09;;;;;;;2.50;0.80;;;11.20;58.60;;;;;;20654328;28;20035;-75
2022/03/30 05:59:10;;;;;;;2.85;0.98;;;11.10;58.70;;;;;;20655950;28;20043;-71
2022/03/30 06:09:10;;;;;;;2.72;1.05;;;11.10;58.70;;;;;;20639654;28;20040;-76
2022/03/30 06:19:12;;;;;;;2.90;1.13;;;11.10;58.70;;;;;;20653584;28;20042;-76
2022/03/30 06:29:13;;;;;;;2.67;1.20;;;11.10;58.80;;;;;;20613235;28;20437;-76
2022/03/30 06:39:13;;;;;;;7.20;1.17;;;11.10;58.80;;;;;;20587304;28;20542;-78
2022/03/30 06:49:14;;;;;;;2.08;0.90;;;11.10;58.80;;;;;;20671022;28;20093;-80
2022/03/30 06:59:14;;;;;;;2.10;0.85;;;11.10;58.90;;;;;;20582912;28;20046;-78
2022/03/30 07:19:34;;;;;;;2.20;0.90;;;11.10;59.00;;;;;;20663269;28;20101;-80
2022/03/30 07:29:34;;;;;;;1.98;1.00;;;11.10;59.10;;;;;;20580157;28;20169;-81
2022/03/30 07:39:35;;;;;;;3.80;1.00;;;11.10;59.10;;;;;;20569747;28;20031;-82
2022/03/30 07:49:36;;;;;;;10.43;1.73;;;11.10;59.10;;;;;;20585798;28;20038;-79
2022/03/30 07:59:36;;;;;;;8.18;1.20;;;11.10;59.00;;;;;;20549993;28;20552;-78
2022/03/30 08:09:37;;;;;;;2.13;0.80;;;11.10;59.00;;;;;;20551143;28;20046;-79
2022/03/30 08:19:37;;;;;;;1.27;0.80;;;11.10;59.10;;;;;;20532550;28;20034;-79
2022/03/30 08:29:38;;;;;;;2.70;0.90;;;11.10;59.20;;;;;;20549160;28;20037;-78
2022/03/30 08:39:40;;;;;;;2.40;1.10;;;11.10;59.20;;;;;;20570307;28;20092;-79
2022/03/30 08:49:42;;;;;;;1.35;0.68;;;11.10;59.30;;;;;;20658417;28;20760;-78
2022/03/30 09:00:05;;;;;;;2.20;0.85;;;11.10;59.30;;;;;;20575555;28;20453;-79
2022/03/30 09:10:12;;;;;;;1.92;0.80;;;11.10;59.40;;;;;;20576577;28;20042;-79
2022/03/30 09:20:20;;;;;;;1.65;0.65;;;11.10;59.50;;;;;;20580996;28;20039;-74
2022/03/30 09:30:21;;;;;;;2.22;0.63;;;11.10;59.50;;;;;;20551097;28;20039;-75
2022/03/30 09:40:21;;;;;;;1.73;0.63;;;11.10;59.60;;;;;;20598968;28;20061;-77
2022/03/30 09:50:27;;;;;;;2.10;0.70;;;11.10;59.60;;;;;;20564374;28;20162;-77
2022/03/30 10:00:28;;;;;;;3.40;0.88;;;11.10;59.70;;;;;;20581705;28;20442;-76
2022/03/30 10:10:29;;;;;;;5.53;0.90;;;11.00;59.60;;;;;;20548993;28;20035;-75
2022/03/30 10:20:31;;;;;;;4.13;0.80;;;11.10;59.60;;;;;;20558149;28;20126;-74
2022/03/30 10:30:32;;;;;;;4.47;0.80;;;11.10;59.60;;;;;;20572567;28;20042;-74
2022/03/30 10:40:32;;;;;;;2.92;0.85;;;11.10;59.60;;;;;;20575492;28;20393;-80
2022/03/30 10:50:37;;;;;;;3.03;0.75;;;11.10;59.70;;;;;;20545728;28;20062;-84
2022/03/30 11:00:38;;;;;;;5.25;0.90;;;11.10;59.80;;;;;;20551929;28;20042;-86
2022/03/30 11:10:47;;;;;;;1.80;1.20;;;11.10;59.90;;;;;;20561829;28;20030;-84
2022/03/30 11:21:12;;;;;;;2.20;0.90;;;11.10;59.90;;;;;;20559867;28;20126;-86
2022/03/30 11:31:23;;;;;;;1.13;0.45;;;11.10;60.00;;;;;;20591826;28;20067;-85
2022/03/30 11:41:23;;;;;;;0.70;0.40;;;11.20;60.30;;;;;;20574516;28;20078;-84
2022/03/30 11:51:25;;;;;;;0.93;0.57;;;11.20;60.00;;;;;;20590570;28;20125;-85
2022/03/30 12:01:26;;;;;;;4.07;1.00;;;11.20;60.10;;;;;;20556109;28;20078;-86
2022/03/30 12:11:29;;;;;;;0.63;0.40;;;11.20;60.10;;;;;;20573636;28;20067;-84
2022/03/30 12:21:38;;;;;;;1.40;0.50;;;11.20;60.20;;;;;;20574043;28;20429;-77
2022/03/30 12:31:56;;;;;;;0.38;0.38;;;11.20;60.30;;;;;;20581577;28;20762;-71
2022/03/30 12:41:59;;;;;;;1.45;0.82;;;11.20;60.30;;;;;;20565552;28;20105;-74
2022/03/30 12:52:07;;;;;;;4.10;1.67;;;11.20;60.40;;;;;;20546550;28;20049;-75
2022/03/30 13:02:18;;;;;;;1.35;0.47;;;11.20;60.40;;;;;;20547076;28;20371;-75
2022/03/30 13:12:18;;;;;;;1.55;0.40;;;11.20;60.40;;;;;;20600124;28;20038;-75
2022/03/30 13:22:21;;;;;;;0.60;0.40;;;11.20;60.30;;;;;;20640628;28;20515;-75
2022/03/30 13:32:22;;;;;;;4.90;1.10;;;11.20;60.20;;;;;;20625847;28;20038;-76
2022/03/30 13:42:22;;;;;;;3.88;0.80;;;11.30;60.30;;;;;;20601377;28;20050;-75
2022/03/30 13:52:24;;;;;;;2.65;0.85;;;11.20;60.30;;;;;;20574167;28;20034;-74
2022/03/30 14:02:25;;;;;;;2.15;0.65;;;11.20;60.40;;;;;;20560973;28;20039;-74
2022/03/30 14:12:27;;;;;;;5.20;1.27;;;11.20;60.50;;;;;;20573467;28;20042;-76
2022/03/30 14:22:28;;;;;;;1.48;0.50;;;11.20;60.60;;;;;;20588815;28;20067;-72
2022/03/30 14:32:29;;;;;;;1.52;0.63;;;11.20;60.70;;;;;;20573368;28;20035;-79
2022/03/30 14:42:30;;;;;;;1.50;0.50;;;11.20;60.90;;;;;;20516324;28;20130;-80
2022/03/30 14:52:30;;;;;;;1.25;0.60;;;11.20;60.80;;;;;;20558483;28;20030;-79
2022/03/30 15:02:31;;;;;;;1.05;0.40;;;11.20;60.80;;;;;;20591479;28;20039;-78
2022/03/30 15:12:33;;;;;;;1.20;0.40;;;11.20;60.90;;;;;;20596175;28;20042;-76
2022/03/30 15:22:34;;;;;;;1.17;0.40;;;11.20;60.90;;;;;;20565906;28;20047;-76
2022/03/30 15:32:35;;;;;;;1.15;0.70;;;11.20;61.00;;;;;;20593782;28;20510;-77
2022/03/30 15:42:40;;;;;;;1.05;0.60;;;11.20;61.00;;;;;;20646835;28;20046;-79
2022/03/30 15:52:43;;;;;;;2.72;0.55;;;11.20;61.10;;;;;;20590853;28;20043;-77
2022/03/30 16:02:43;;;;;;;1.10;0.30;;;11.20;61.20;;;;;;20568288;28;20367;-79
2022/03/30 16:12:44;;;;;;;1.23;0.38;;;11.20;61.20;;;;;;20566315;28;20042;-78
2022/03/30 16:22:50;;;;;;;0.52;0.30;;;11.20;61.30;;;;;;20583247;28;20070;-75
2022/03/30 16:32:51;;;;;;;0.40;0.30;;;11.20;61.30;;;;;;20568333;28;20034;-78
2022/03/30 16:42:52;;;;;;;2.05;0.30;;;11.20;61.40;;;;;;20592133;28;20109;-81
2022/03/30 16:52:53;;;;;;;0.43;0.30;;;11.20;61.40;;;;;;20569042;28;20034;-78
2022/03/30 17:02:54;;;;;;;1.95;0.47;;;11.20;61.40;;;;;;20557718;28;20039;-76
2022/03/30 17:12:55;;;;;;;0.63;0.30;;;11.20;61.40;;;;;;20566595;28;20093;-75
2022/03/30 17:22:56;;;;;;;0.60;0.40;;;11.10;61.50;;;;;;20575989;28;20034;-76
2022/03/30 17:33:00;;;;;;;1.00;0.32;;;11.10;61.50;;;;;;20541156;28;20125;-77
2022/03/30 17:43:01;;;;;;;1.75;0.35;;;11.10;61.50;;;;;;20612598;28;20121;-77
2022/03/30 17:53:02;;;;;;;0.52;0.30;;;11.10;61.50;;;;;;20543532;28;20059;-75
2022/03/30 18:03:02;;;;;;;1.10;0.40;;;11.10;61.50;;;;;;20558194;28;20661;-75
2022/03/30 18:13:03;;;;;;;0.60;0.32;;;11.10;61.50;;;;;;20557425;28;20116;-76
2022/03/30 18:23:06;;;;;;;0.60;0.30;;;11.10;61.60;;;;;;20540855;28;20065;-77
2022/03/30 18:33:08;;;;;;;0.65;0.20;;;11.10;61.50;;;;;;20556083;28;20061;-76
2022/03/30 18:43:09;;;;;;;0.73;0.30;;;11.10;61.60;;;;;;20555230;28;20109;-76
2022/03/30 18:53:09;;;;;;;1.60;0.88;;;11.00;61.50;;;;;;20538113;28;20023;-76
2022/03/30 19:03:18;;;;;;;2.70;0.45;;;11.00;61.60;;;;;;20550750;28;20035;-76
2022/03/30 19:13:20;;;;;;;4.03;0.68;;;11.00;61.60;;;;;;20555495;28;20038;-76
2022/03/30 19:23:21;;;;;;;0.38;0.30;;;11.00;61.60;;;;;;20552513;28;20046;-75
2022/03/30 19:33:22;;;;;;;2.15;0.30;;;11.00;61.60;;;;;;20549789;28;20034;-76
2022/03/30 19:43:22;;;;;;;0.98;0.20;;;11.00;61.70;;;;;;20581974;28;20039;-76
2022/03/30 19:53:23;;;;;;;1.48;0.40;;;11.00;61.70;;;;;;20528168;28;20035;-75
2022/03/30 20:03:24;;;;;;;1.17;0.40;;;10.90;61.60;;;;;;20563911;28;20109;-76
2022/03/30 20:13:24;;;;;;;0.77;0.30;;;10.90;61.70;;;;;;20563747;28;20039;-76
2022/03/30 20:23:25;;;;;;;0.95;0.50;;;11.00;61.70;;;;;;20560226;28;20035;-78
2022/03/30 20:33:26;;;;;;;0.45;0.30;;;11.00;61.70;;;;;;20526179;28;20030;-77
2022/03/30 20:43:26;;;;;;;1.27;0.20;;;10.90;61.70;;;;;;20561702;28;20039;-76
2022/03/30 20:53:27;;;;;;;1.07;0.30;;;10.90;61.70;;;;;;20537708;28;20091;-76
2022/03/30 21:03:28;;;;;;;0.45;0.30;;;10.90;61.70;;;;;;20539886;28;20302;-77
2022/03/30 21:13:28;;;;;;;0.20;0.20;;;10.90;61.70;;;;;;20524712;28;20247;-78
2022/03/30 21:23:29;;;;;;;1.10;0.30;;;10.90;61.70;;;;;;20539175;28;20464;-76
2022/03/30 21:33:30;;;;;;;0.73;0.30;;;10.90;61.70;;;;;;20527747;28;20035;-76
2022/03/30 21:43:30;;;;;;;0.68;0.32;;;10.90;61.70;;;;;;20494795;29;20310;-76
2022/03/30 21:53:31;;;;;;;0.95;0.30;;;10.90;61.70;;;;;;20481430;29;20035;-76
2022/03/30 22:03:32;;;;;;;0.60;0.37;;;10.90;62.40;;;;;;20495552;29;20514;-75
2022/03/30 22:13:33;;;;;;;0.40;0.20;;;10.90;61.80;;;;;;20495605;29;20302;-77
2022/03/30 22:23:33;;;;;;;0.40;0.20;;;10.90;61.80;;;;;;20493845;28;20047;-76
2022/03/30 22:43:53;;;;;;;0.20;0.20;;;10.80;61.70;;;;;;20508701;29;20122;-77
2022/03/30 22:53:54;;;;;;;0.88;0.38;;;10.90;61.80;;;;;;20476372;29;20066;-77
2022/03/30 23:03:54;;;;;;;1.45;0.35;;;10.80;61.70;;;;;;20475722;29;20035;-76
2022/03/30 23:13:55;;;;;;;0.32;0.20;;;10.80;61.80;;;;;;20490354;29;20027;-77
2022/03/30 23:23:56;;;;;;;0.63;0.40;;;10.80;61.70;;;;;;20505575;29;20039;-77
2022/03/30 23:33:56;;;;;;;0.43;0.28;;;10.80;61.70;;;;;;20488605;28;20028;-77
2022/03/30 23:43:57;;;;;;;0.65;0.30;;;10.80;61.70;;;;;;20487906;29;20406;-77
2022/03/30 23:53:57;;;;;;;0.20;0.20;;;10.80;61.70;;;;;;20487107;29;20470;-76
